sensor_id;sensor_type;location;lat;lon;timestamp;pressure;altitude;pressure_sealevel;temperature;humidity
75298;BME280;63896;45.990;18.688;2023-04-25T00:01:25;99802.28;;;11.12;100.00
75298;BME280;63896;45.990;18.688;2023-04-25T00:04:28;99797.66;;;11.07;100.00
75298;BME280;63896;45.990;18.688;2023-04-25T00:07:33;99798.69;;;11.06;100.00
75298;BME280;63896;45.990;18.688;2023-04-25T00:10:38;99787.59;;;10.97;100.00
75298;BME280;63896;45.990;18.688;2023-04-25T00:13:41;99787.03;;;10.95;100.00
75298;BME280;63896;45.990;18.688;2023-04-25T00:16:44;99791.31;;;10.96;100.00
75298;BME280;63896;45.990;18.688;2023-04-25T00:19:47;99792.69;;;10.87;100.00
75298;BME280;63896;45.990;18.688;2023-04-25T00:22:50;99792.56;;;10.82;100.00
75298;BME280;63896;45.990;18.688;2023-04-25T00:25:55;99787.59;;;10.74;100.00
75298;BME280;63896;45.990;18.688;2023-04-25T00:28:58;99787.72;;;10.68;100.00
75298;BME280;63896;45.990;18.688;2023-04-25T00:32:01;99793.84;;;10.68;100.00
75298;BME280;63896;45.990;18.688;2023-04-25T00:35:05;99792.47;;;10.66;100.00
75298;BME280;63896;45.990;18.688;2023-04-25T00:38:08;99792.91;;;10.63;100.00
75298;BME280;63896;45.990;18.688;2023-04-25T00:41:11;99796.47;;;10.57;100.00
75298;BME280;63896;45.990;18.688;2023-04-25T00:44:15;99795.53;;;10.51;100.00
75298;BME280;63896;45.990;18.688;2023-04-25T00:47:19;99789.66;;;10.49;100.00
75298;BME280;63896;45.990;18.688;2023-04-25T00:50:23;99797.47;;;10.44;100.00
75298;BME280;63896;45.990;18.688;2023-04-25T00:53:27;99797.13;;;10.40;100.00
75298;BME280;63896;45.990;18.688;2023-04-25T00:56:31;99805.09;;;10.40;100.00
75298;BME280;63896;45.990;18.688;2023-04-25T00:59:36;99806.34;;;10.38;100.00
75298;BME280;63896;45.990;18.688;2023-04-25T01:02:41;99808.41;;;10.36;100.00
75298;BME280;63896;45.990;18.688;2023-04-25T01:05:46;99815.66;;;10.29;100.00
75298;BME280;63896;45.990;18.688;2023-04-25T01:08:51;99813.69;;;10.24;100.00
75298;BME280;63896;45.990;18.688;2023-04-25T01:11:54;99823.16;;;10.32;100.00
75298;BME280;63896;45.990;18.688;2023-04-25T01:14:57;99820.16;;;10.28;100.00
75298;BME280;63896;45.990;18.688;2023-04-25T01:18:00;99822.00;;;10.28;100.00
75298;BME280;63896;45.990;18.688;2023-04-25T01:21:08;99825.44;;;10.28;100.00
75298;BME280;63896;45.990;18.688;2023-04-25T01:24:13;99828.56;;;10.25;100.00
75298;BME280;63896;45.990;18.688;2023-04-25T01:27:16;99824.06;;;10.26;100.00
75298;BME280;63896;45.990;18.688;2023-04-25T01:30:21;99822.69;;;10.23;100.00
75298;BME280;63896;45.990;18.688;2023-04-25T01:33:24;99825.56;;;10.22;100.00
75298;BME280;63896;45.990;18.688;2023-04-25T01:36:27;99836.16;;;10.22;100.00
75298;BME280;63896;45.990;18.688;2023-04-25T01:39:30;99830.25;;;10.20;100.00
75298;BME280;63896;45.990;18.688;2023-04-25T01:42:35;99832.56;;;10.16;100.00
75298;BME280;63896;45.990;18.688;2023-04-25T01:45:39;99833.78;;;10.14;100.00
75298;BME280;63896;45.990;18.688;2023-04-25T01:48:45;99838.94;;;10.09;100.00
75298;BME280;63896;45.990;18.688;2023-04-25T01:51:49;99840.66;;;10.03;100.00
75298;BME280;63896;45.990;18.688;2023-04-25T01:54:53;99845.72;;;10.04;100.00
75298;BME280;63896;45.990;18.688;2023-04-25T01:57:56;99833.28;;;10.05;100.00
75298;BME280;63896;45.990;18.688;2023-04-25T02:01:11;99843.97;;;9.98;100.00
75298;BME280;63896;45.990;18.688;2023-04-25T02:04:20;99838.09;;;9.96;100.00
75298;BME280;63896;45.990;18.688;2023-04-25T02:07:23;99838.09;;;9.96;100.00
75298;BME280;63896;45.990;18.688;2023-04-25T02:10:28;99838.69;;;9.98;100.00
75298;BME280;63896;45.990;18.688;2023-04-25T02:13:44;99827.25;;;9.98;100.00
75298;BME280;63896;45.990;18.688;2023-04-25T02:16:59;99837.72;;;9.93;100.00
75298;BME280;63896;45.990;18.688;2023-04-25T02:20:05;99841.19;;;9.93;100.00
75298;BME280;63896;45.990;18.688;2023-04-25T02:23:08;99839.34;;;9.94;100.00
75298;BME280;63896;45.990;18.688;2023-04-25T02:26:11;99836.13;;;9.92;100.00
75298;BME280;63896;45.990;18.688;2023-04-25T02:29:16;99842.66;;;9.89;100.00
75298;BME280;63896;45.990;18.688;2023-04-25T02:32:19;99831.69;;;9.86;100.00
75298;BME280;63896;45.990;18.688;2023-04-25T02:35:23;99831.13;;;9.84;100.00
75298;BME280;63896;45.990;18.688;2023-04-25T02:38:28;99836.19;;;9.85;100.00
75298;BME280;63896;45.990;18.688;2023-04-25T02:41:32;99829.88;;;9.86;100.00
75298;BME280;63896;45.990;18.688;2023-04-25T02:44:34;99832.88;;;9.90;100.00
75298;BME280;63896;45.990;18.688;2023-04-25T02:47:37;99831.50;;;9.87;100.00
75298;BME280;63896;45.990;18.688;2023-04-25T02:50:40;99831.94;;;9.84;98.66
75298;BME280;63896;45.990;18.688;2023-04-25T02:53:43;99831.94;;;9.84;98.36
75298;BME280;63896;45.990;18.688;2023-04-25T02:56:46;99832.50;;;9.86;97.85
75298;BME280;63896;45.990;18.688;2023-04-25T02:59:55;99834.34;;;9.86;96.18
75298;BME280;63896;45.990;18.688;2023-04-25T03:02:57;99833.78;;;9.84;96.62
75298;BME280;63896;45.990;18.688;2023-04-25T03:06:00;99834.13;;;9.87;96.85
75298;BME280;63896;45.990;18.688;2023-04-25T03:09:06;99838.25;;;9.83;97.19
75298;BME280;63896;45.990;18.688;2023-04-25T03:12:09;99844.00;;;9.80;96.05
75298;BME280;63896;45.990;18.688;2023-04-25T03:15:12;99837.66;;;9.81;96.24
75298;BME280;63896;45.990;18.688;2023-04-25T03:18:17;99845.19;;;9.84;96.88
75298;BME280;63896;45.990;18.688;2023-04-25T03:21:19;99842.91;;;9.88;96.82
75298;BME280;63896;45.990;18.688;2023-04-25T03:24:22;99841.13;;;9.82;96.22
75298;BME280;63896;45.990;18.688;2023-04-25T03:27:25;99849.69;;;9.84;95.75
75298;BME280;63896;45.990;18.688;2023-04-25T03:30:28;99836.19;;;9.85;95.12
75298;BME280;63896;45.990;18.688;2023-04-25T03:33:31;99839.19;;;9.89;94.27
75298;BME280;63896;45.990;18.688;2023-04-25T03:36:35;99837.59;;;9.88;93.20
75298;BME280;63896;45.990;18.688;2023-04-25T03:39:38;99838.97;;;9.90;92.23
75298;BME280;63896;45.990;18.688;2023-04-25T03:42:41;99856.25;;;9.93;91.86
75298;BME280;63896;45.990;18.688;2023-04-25T03:45:46;99844.06;;;9.92;92.55
75298;BME280;63896;45.990;18.688;2023-04-25T03:48:51;99844.38;;;9.84;92.54
75298;BME280;63896;45.990;18.688;2023-04-25T03:51:59;99854.31;;;9.88;91.48
75298;BME280;63896;45.990;18.688;2023-04-25T03:55:06;99859.00;;;9.86;90.92
75298;BME280;63896;45.990;18.688;2023-04-25T03:58:09;99857.44;;;9.97;90.53
75298;BME280;63896;45.990;18.688;2023-04-25T04:01:13;99854.59;;;9.98;90.79
75298;BME280;63896;45.990;18.688;2023-04-25T04:04:16;99861.94;;;9.96;91.51
75298;BME280;63896;45.990;18.688;2023-04-25T04:07:20;99865.63;;;9.95;89.64
75298;BME280;63896;45.990;18.688;2023-04-25T04:10:29;99864.00;;;9.94;89.65
75298;BME280;63896;45.990;18.688;2023-04-25T04:13:32;99866.19;;;9.97;90.00
75298;BME280;63896;45.990;18.688;2023-04-25T04:16:36;99872.53;;;9.96;90.18
75298;BME280;63896;45.990;18.688;2023-04-25T04:19:39;99868.75;;;10.04;88.99
75298;BME280;63896;45.990;18.688;2023-04-25T04:22:49;99875.19;;;9.96;89.26
75298;BME280;63896;45.990;18.688;2023-04-25T04:25:54;99884.09;;;10.02;89.29
75298;BME280;63896;45.990;18.688;2023-04-25T04:29:15;99879.97;;;10.06;89.02
75298;BME280;63896;45.990;18.688;2023-04-25T04:32:43;99885.06;;;10.08;88.65
75298;BME280;63896;45.990;18.688;2023-04-25T04:35:47;99885.06;;;10.08;89.39
75298;BME280;63896;45.990;18.688;2023-04-25T04:38:52;99887.41;;;10.16;88.94
75298;BME280;63896;45.990;18.688;2023-04-25T04:42:15;99879.59;;;10.21;90.22
75298;BME280;63896;45.990;18.688;2023-04-25T04:45:28;99886.88;;;10.25;90.35
75298;BME280;63896;45.990;18.688;2023-04-25T04:48:49;99884.38;;;10.30;90.63
75298;BME280;63896;45.990;18.688;2023-04-25T04:52:28;99890.16;;;10.39;90.30
75298;BME280;63896;45.990;18.688;2023-04-25T04:55:38;99893.66;;;10.51;89.43
75298;BME280;63896;45.990;18.688;2023-04-25T04:58:59;99894.38;;;10.58;89.36
75298;BME280;63896;45.990;18.688;2023-04-25T05:02:22;99893.09;;;10.49;89.63
75298;BME280;63896;45.990;18.688;2023-04-25T05:05:35;99900.50;;;10.59;88.99
75298;BME280;63896;45.990;18.688;2023-04-25T05:09:08;99898.44;;;10.61;88.86
75298;BME280;63896;45.990;18.688;2023-04-25T05:12:35;99904.91;;;10.65;88.75
75298;BME280;63896;45.990;18.688;2023-04-25T05:16:02;99902.63;;;10.68;87.08
75298;BME280;63896;45.990;18.688;2023-04-25T05:19:32;99910.84;;;10.90;87.38
75298;BME280;63896;45.990;18.688;2023-04-25T05:22:53;99911.44;;;10.92;86.98
75298;BME280;63896;45.990;18.688;2023-04-25T05:26:19;99914.19;;;10.97;87.31
75298;BME280;63896;45.990;18.688;2023-04-25T05:29:44;99918.03;;;11.13;84.80
75298;BME280;63896;45.990;18.688;2023-04-25T05:32:58;99910.69;;;11.26;84.89
75298;BME280;63896;45.990;18.688;2023-04-25T05:36:02;99910.69;;;11.38;84.17
75298;BME280;63896;45.990;18.688;2023-04-25T05:39:05;99916.22;;;11.48;82.43
75298;BME280;63896;45.990;18.688;2023-04-25T05:42:27;99912.19;;;11.57;81.82
75298;BME280;63896;45.990;18.688;2023-04-25T05:45:41;99921.19;;;11.68;80.84
75298;BME280;63896;45.990;18.688;2023-04-25T05:49:33;99923.97;;;11.84;79.88
75298;BME280;63896;45.990;18.688;2023-04-25T05:53:18;99919.78;;;12.00;77.12
75298;BME280;63896;45.990;18.688;2023-04-25T05:56:27;99911.41;;;12.20;76.39
75298;BME280;63896;45.990;18.688;2023-04-25T05:59:31;99921.53;;;12.34;76.15
75298;BME280;63896;45.990;18.688;2023-04-25T06:02:34;99913.41;;;12.41;75.01
75298;BME280;63896;45.990;18.688;2023-04-25T06:05:38;99928.38;;;12.59;73.29
75298;BME280;63896;45.990;18.688;2023-04-25T06:08:46;99922.03;;;12.76;73.94
75298;BME280;63896;45.990;18.688;2023-04-25T06:11:53;99929.03;;;12.66;72.50
75298;BME280;63896;45.990;18.688;2023-04-25T06:14:55;99927.91;;;12.78;72.03
75298;BME280;63896;45.990;18.688;2023-04-25T06:18:03;99928.53;;;12.97;71.92
75298;BME280;63896;45.990;18.688;2023-04-25T06:21:09;99936.31;;;12.70;69.54
75298;BME280;63896;45.990;18.688;2023-04-25T06:24:13;99938.97;;;12.70;71.00
75298;BME280;63896;45.990;18.688;2023-04-25T06:27:16;99937.03;;;12.82;71.16
75298;BME280;63896;45.990;18.688;2023-04-25T06:30:19;99943.56;;;12.75;71.03
75298;BME280;63896;45.990;18.688;2023-04-25T06:33:32;99931.31;;;12.90;70.12
75298;BME280;63896;45.990;18.688;2023-04-25T06:36:47;99927.88;;;13.07;69.88
75298;BME280;63896;45.990;18.688;2023-04-25T06:40:05;99931.88;;;13.38;69.79
75298;BME280;63896;45.990;18.688;2023-04-25T06:43:12;99932.34;;;13.51;67.41
75298;BME280;63896;45.990;18.688;2023-04-25T06:46:50;99931.69;;;13.61;65.11
75298;BME280;63896;45.990;18.688;2023-04-25T06:49:53;99936.56;;;13.86;64.07
75298;BME280;63896;45.990;18.688;2023-04-25T06:52:56;99931.53;;;14.11;62.93
75298;BME280;63896;45.990;18.688;2023-04-25T06:55:59;99937.84;;;14.70;61.99
75298;BME280;63896;45.990;18.688;2023-04-25T06:59:16;99927.16;;;14.97;61.30
75298;BME280;63896;45.990;18.688;2023-04-25T07:02:21;99923.19;;;15.36;59.01
75298;BME280;63896;45.990;18.688;2023-04-25T07:05:32;99924.56;;;15.81;58.06
75298;BME280;63896;45.990;18.688;2023-04-25T07:08:35;99927.78;;;15.09;58.50
75298;BME280;63896;45.990;18.688;2023-04-25T07:11:38;99926.38;;;14.69;60.27
75298;BME280;63896;45.990;18.688;2023-04-25T07:14:43;99925.13;;;14.33;60.42
75298;BME280;63896;45.990;18.688;2023-04-25T07:17:46;99924.25;;;14.01;60.70
75298;BME280;63896;45.990;18.688;2023-04-25T07:20:49;99926.69;;;14.29;61.31
75298;BME280;63896;45.990;18.688;2023-04-25T07:23:53;99928.81;;;14.49;60.78
75298;BME280;63896;45.990;18.688;2023-04-25T07:27:01;99929.19;;;14.85;60.50
75298;BME280;63896;45.990;18.688;2023-04-25T07:30:11;99920.44;;;16.15;56.12
75298;BME280;63896;45.990;18.688;2023-04-25T07:33:14;99917.44;;;17.24;53.30
75298;BME280;63896;45.990;18.688;2023-04-25T07:36:19;99921.63;;;17.96;52.28
75298;BME280;63896;45.990;18.688;2023-04-25T07:39:22;99915.88;;;19.44;47.90
75298;BME280;63896;45.990;18.688;2023-04-25T07:42:26;99906.03;;;19.59;48.00
75298;BME280;63896;45.990;18.688;2023-04-25T07:45:29;99910.94;;;19.57;45.74
75298;BME280;63896;45.990;18.688;2023-04-25T07:48:32;99894.84;;;20.60;43.24
75298;BME280;63896;45.990;18.688;2023-04-25T07:51:37;99899.16;;;21.45;41.00
75298;BME280;63896;45.990;18.688;2023-04-25T07:54:47;99890.16;;;20.84;41.95
75298;BME280;63896;45.990;18.688;2023-04-25T07:58:34;99898.56;;;19.79;45.44
75298;BME280;63896;45.990;18.688;2023-04-25T08:01:39;99903.53;;;19.67;43.72
75298;BME280;63896;45.990;18.688;2023-04-25T08:04:44;99893.41;;;18.96;45.29
75298;BME280;63896;45.990;18.688;2023-04-25T08:07:52;99890.53;;;18.39;47.22
75298;BME280;63896;45.990;18.688;2023-04-25T08:10:55;99896.31;;;18.66;48.07
75298;BME280;63896;45.990;18.688;2023-04-25T08:13:58;99894.53;;;18.51;47.22
75298;BME280;63896;45.990;18.688;2023-04-25T08:17:02;99893.28;;;17.49;50.15
75298;BME280;63896;45.990;18.688;2023-04-25T08:20:14;99899.19;;;17.61;48.71
75298;BME280;63896;45.990;18.688;2023-04-25T08:23:24;99896.06;;;18.14;48.03
75298;BME280;63896;45.990;18.688;2023-04-25T08:26:45;99890.13;;;19.86;43.22
75298;BME280;63896;45.990;18.688;2023-04-25T08:29:51;99889.09;;;21.77;42.57
75298;BME280;63896;45.990;18.688;2023-04-25T08:33:27;99890.25;;;22.40;38.49
75298;BME280;63896;45.990;18.688;2023-04-25T08:36:52;99891.47;;;23.36;37.36
75298;BME280;63896;45.990;18.688;2023-04-25T08:40:14;99890.63;;;24.06;36.27
75298;BME280;63896;45.990;18.688;2023-04-25T08:43:42;99883.72;;;24.82;34.17
75298;BME280;63896;45.990;18.688;2023-04-25T08:46:47;99883.88;;;24.51;34.43
75298;BME280;63896;45.990;18.688;2023-04-25T08:50:06;99878.28;;;24.82;34.40
75298;BME280;63896;45.990;18.688;2023-04-25T08:53:37;99884.50;;;24.91;32.82
75298;BME280;63896;45.990;18.688;2023-04-25T08:56:47;99882.56;;;25.73;30.81
75298;BME280;63896;45.990;18.688;2023-04-25T08:59:51;99880.53;;;24.89;32.66
75298;BME280;63896;45.990;18.688;2023-04-25T09:02:58;99878.44;;;24.77;33.52
75298;BME280;63896;45.990;18.688;2023-04-25T09:06:07;99874.47;;;25.64;31.61
75298;BME280;63896;45.990;18.688;2023-04-25T09:09:11;99874.94;;;25.49;31.75
75298;BME280;63896;45.990;18.688;2023-04-25T09:12:18;99866.31;;;24.75;30.76
75298;BME280;63896;45.990;18.688;2023-04-25T09:15:24;99878.78;;;24.93;31.71
75298;BME280;63896;45.990;18.688;2023-04-25T09:18:55;99871.97;;;23.48;33.22
75298;BME280;63896;45.990;18.688;2023-04-25T09:22:00;99881.63;;;24.62;30.89
75298;BME280;63896;45.990;18.688;2023-04-25T09:25:10;99875.53;;;25.25;30.31
75298;BME280;63896;45.990;18.688;2023-04-25T09:28:15;99870.94;;;24.65;30.37
75298;BME280;63896;45.990;18.688;2023-04-25T09:31:22;99867.72;;;25.62;29.04
75298;BME280;63896;45.990;18.688;2023-04-25T09:35:25;99869.59;;;27.80;27.10
75298;BME280;63896;45.990;18.688;2023-04-25T09:38:45;99871.00;;;27.41;26.33
75298;BME280;63896;45.990;18.688;2023-04-25T09:41:59;99876.13;;;28.68;25.47
75298;BME280;63896;45.990;18.688;2023-04-25T09:45:03;99873.84;;;25.58;29.08
75298;BME280;63896;45.990;18.688;2023-04-25T09:48:36;99874.38;;;27.38;26.87
75298;BME280;63896;45.990;18.688;2023-04-25T09:51:39;99874.41;;;26.02;27.59
75298;BME280;63896;45.990;18.688;2023-04-25T09:55:09;99872.16;;;27.08;27.47
75298;BME280;63896;45.990;18.688;2023-04-25T09:58:19;99870.03;;;25.34;28.48
75298;BME280;63896;45.990;18.688;2023-04-25T10:02:00;99867.00;;;25.82;27.07
75298;BME280;63896;45.990;18.688;2023-04-25T10:05:37;99869.31;;;27.04;26.50
75298;BME280;63896;45.990;18.688;2023-04-25T10:09:00;99874.91;;;27.20;27.05
75298;BME280;63896;45.990;18.688;2023-04-25T10:12:13;99881.56;;;26.36;26.58
75298;BME280;63896;45.990;18.688;2023-04-25T10:15:17;99873.19;;;26.20;27.12
75298;BME280;63896;45.990;18.688;2023-04-25T10:18:25;99871.59;;;26.19;26.78
75298;BME280;63896;45.990;18.688;2023-04-25T10:21:33;99883.38;;;25.09;27.39
75298;BME280;63896;45.990;18.688;2023-04-25T10:24:44;99871.22;;;26.00;26.88
75298;BME280;63896;45.990;18.688;2023-04-25T10:27:52;99870.63;;;26.86;24.90
75298;BME280;63896;45.990;18.688;2023-04-25T10:31:06;99874.31;;;24.97;27.50
75298;BME280;63896;45.990;18.688;2023-04-25T10:34:10;99863.91;;;24.99;28.00
75298;BME280;63896;45.990;18.688;2023-04-25T10:37:14;99869.34;;;25.92;25.81
75298;BME280;63896;45.990;18.688;2023-04-25T10:41:08;99877.22;;;23.92;29.13
75298;BME280;63896;45.990;18.688;2023-04-25T10:44:14;99866.00;;;26.45;25.81
75298;BME280;63896;45.990;18.688;2023-04-25T10:47:34;99857.06;;;24.67;27.62
75298;BME280;63896;45.990;18.688;2023-04-25T10:51:07;99870.97;;;23.21;29.63
75298;BME280;63896;45.990;18.688;2023-04-25T10:54:10;99864.78;;;21.64;31.78
75298;BME280;63896;45.990;18.688;2023-04-25T11:00:41;99867.78;;;22.53;30.63
75298;BME280;63896;45.990;18.688;2023-04-25T11:03:59;99859.41;;;23.30;29.95
75298;BME280;63896;45.990;18.688;2023-04-25T11:10:09;99858.69;;;26.07;25.29
75298;BME280;63896;45.990;18.688;2023-04-25T11:13:13;99856.34;;;26.68;24.29
75298;BME280;63896;45.990;18.688;2023-04-25T11:16:17;99841.16;;;27.93;23.88
75298;BME280;63896;45.990;18.688;2023-04-25T11:19:29;99841.38;;;28.53;22.37
75298;BME280;63896;45.990;18.688;2023-04-25T11:22:37;99839.72;;;25.32;25.09
75298;BME280;63896;45.990;18.688;2023-04-25T11:25:56;99853.22;;;23.07;27.95
75298;BME280;63896;45.990;18.688;2023-04-25T11:29:09;99842.25;;;24.56;26.60
75298;BME280;63896;45.990;18.688;2023-04-25T11:32:12;99855.88;;;22.98;29.03
75298;BME280;63896;45.990;18.688;2023-04-25T11:35:16;99859.97;;;22.15;30.21
75298;BME280;63896;45.990;18.688;2023-04-25T11:38:19;99865.59;;;24.00;29.60
75298;BME280;63896;45.990;18.688;2023-04-25T11:41:26;99853.97;;;25.20;27.15
75298;BME280;63896;45.990;18.688;2023-04-25T11:44:30;99853.63;;;23.22;30.07
75298;BME280;63896;45.990;18.688;2023-04-25T11:47:33;99854.97;;;22.45;31.01
75298;BME280;63896;45.990;18.688;2023-04-25T11:50:39;99850.09;;;22.91;30.58
75298;BME280;63896;45.990;18.688;2023-04-25T11:53:44;99854.06;;;23.78;29.55
75298;BME280;63896;45.990;18.688;2023-04-25T11:56:47;99838.69;;;24.98;27.74
75298;BME280;63896;45.990;18.688;2023-04-25T11:59:52;99838.84;;;24.93;27.15
75298;BME280;63896;45.990;18.688;2023-04-25T12:03:00;99847.22;;;22.88;29.86
75298;BME280;63896;45.990;18.688;2023-04-25T12:06:17;99834.94;;;21.28;32.47
75298;BME280;63896;45.990;18.688;2023-04-25T12:09:28;99834.16;;;23.91;28.87
75298;BME280;63896;45.990;18.688;2023-04-25T12:12:35;99828.63;;;26.33;26.13
75298;BME280;63896;45.990;18.688;2023-04-25T12:15:40;99823.44;;;28.00;23.95
75298;BME280;63896;45.990;18.688;2023-04-25T12:18:45;99818.78;;;28.80;22.75
75298;BME280;63896;45.990;18.688;2023-04-25T12:21:48;99817.41;;;27.33;23.41
75298;BME280;63896;45.990;18.688;2023-04-25T12:30:54;99810.50;;;26.17;25.10
75298;BME280;63896;45.990;18.688;2023-04-25T12:33:57;99814.47;;;23.51;29.18
75298;BME280;63896;45.990;18.688;2023-04-25T12:37:00;99812.44;;;23.73;28.08
75298;BME280;63896;45.990;18.688;2023-04-25T12:40:03;99808.53;;;24.57;27.10
75298;BME280;63896;45.990;18.688;2023-04-25T12:43:08;99798.84;;;24.56;27.60
75298;BME280;63896;45.990;18.688;2023-04-25T12:46:11;99803.72;;;25.43;26.30
75298;BME280;63896;45.990;18.688;2023-04-25T12:49:14;99796.25;;;26.20;24.08
75298;BME280;63896;45.990;18.688;2023-04-25T12:52:20;99787.69;;;27.65;23.83
75298;BME280;63896;45.990;18.688;2023-04-25T12:55:23;99793.25;;;27.56;24.66
75298;BME280;63896;45.990;18.688;2023-04-25T12:58:26;99796.72;;;24.01;27.51
75298;BME280;63896;45.990;18.688;2023-04-25T13:01:29;99801.34;;;22.38;30.14
75298;BME280;63896;45.990;18.688;2023-04-25T13:04:34;99800.06;;;20.85;32.28
75298;BME280;63896;45.990;18.688;2023-04-25T13:07:37;99790.63;;;23.79;28.86
75298;BME280;63896;45.990;18.688;2023-04-25T13:10:40;99791.59;;;25.70;26.17
75298;BME280;63896;45.990;18.688;2023-04-25T13:13:43;99787.84;;;27.11;24.68
75298;BME280;63896;45.990;18.688;2023-04-25T13:16:47;99786.78;;;26.59;23.38
75298;BME280;63896;45.990;18.688;2023-04-25T13:19:50;99780.78;;;26.86;21.78
75298;BME280;63896;45.990;18.688;2023-04-25T13:22:53;99780.13;;;27.98;20.74
75298;BME280;63896;45.990;18.688;2023-04-25T13:25:56;99773.34;;;29.19;20.00
75298;BME280;63896;45.990;18.688;2023-04-25T13:29:04;99767.06;;;28.31;21.31
75298;BME280;63896;45.990;18.688;2023-04-25T13:32:09;99771.69;;;28.43;20.27
75298;BME280;63896;45.990;18.688;2023-04-25T13:35:13;99759.88;;;27.99;20.72
75298;BME280;63896;45.990;18.688;2023-04-25T13:38:16;99762.13;;;28.21;21.13
75298;BME280;63896;45.990;18.688;2023-04-25T13:41:19;99756.75;;;28.80;20.63
75298;BME280;63896;45.990;18.688;2023-04-25T13:44:22;99756.31;;;28.23;19.56
75298;BME280;63896;45.990;18.688;2023-04-25T13:47:26;99755.06;;;25.59;23.38
75298;BME280;63896;45.990;18.688;2023-04-25T13:50:29;99755.16;;;25.92;21.90
75298;BME280;63896;45.990;18.688;2023-04-25T13:53:32;99748.56;;;26.55;23.27
75298;BME280;63896;45.990;18.688;2023-04-25T13:56:35;99745.00;;;24.75;24.86
75298;BME280;63896;45.990;18.688;2023-04-25T13:59:38;99745.22;;;23.27;26.67
75298;BME280;63896;45.990;18.688;2023-04-25T14:02:43;99744.41;;;22.88;26.19
75298;BME280;63896;45.990;18.688;2023-04-25T14:05:46;99743.72;;;22.51;26.67
75298;BME280;63896;45.990;18.688;2023-04-25T14:08:53;99753.03;;;21.87;28.61
75298;BME280;63896;45.990;18.688;2023-04-25T14:11:56;99745.47;;;22.11;28.23
75298;BME280;63896;45.990;18.688;2023-04-25T14:14:59;99745.75;;;21.06;29.87
75298;BME280;63896;45.990;18.688;2023-04-25T14:18:02;99742.78;;;21.21;32.04
75298;BME280;63896;45.990;18.688;2023-04-25T14:21:05;99743.19;;;21.42;32.28
75298;BME280;63896;45.990;18.688;2023-04-25T14:24:09;99736.00;;;21.51;30.58
75298;BME280;63896;45.990;18.688;2023-04-25T14:27:13;99745.66;;;21.52;31.51
75298;BME280;63896;45.990;18.688;2023-04-25T14:30:21;99735.38;;;21.40;31.95
75298;BME280;63896;45.990;18.688;2023-04-25T14:33:24;99740.06;;;21.07;32.26
75298;BME280;63896;45.990;18.688;2023-04-25T14:36:30;99740.69;;;20.58;31.83
75298;BME280;63896;45.990;18.688;2023-04-25T14:39:34;99738.31;;;20.01;34.72
75298;BME280;63896;45.990;18.688;2023-04-25T14:42:37;99739.25;;;20.47;34.55
75298;BME280;63896;45.990;18.688;2023-04-25T14:45:40;99739.63;;;20.73;31.27
75298;BME280;63896;45.990;18.688;2023-04-25T14:48:43;99734.94;;;20.78;31.47
75298;BME280;63896;45.990;18.688;2023-04-25T14:51:46;99734.31;;;20.54;32.26
75298;BME280;63896;45.990;18.688;2023-04-25T14:54:51;99738.47;;;20.09;32.03
75298;BME280;63896;45.990;18.688;2023-04-25T14:57:54;99738.44;;;19.77;33.04
75298;BME280;63896;45.990;18.688;2023-04-25T15:00:59;99741.66;;;19.55;33.22
75298;BME280;63896;45.990;18.688;2023-04-25T15:04:03;99737.31;;;19.96;32.56
75298;BME280;63896;45.990;18.688;2023-04-25T15:07:06;99732.22;;;19.76;30.71
75298;BME280;63896;45.990;18.688;2023-04-25T15:10:10;99735.75;;;19.29;30.35
75298;BME280;63896;45.990;18.688;2023-04-25T15:13:19;99739.75;;;18.84;31.99
75298;BME280;63896;45.990;18.688;2023-04-25T15:16:22;99745.13;;;18.84;33.18
75298;BME280;63896;45.990;18.688;2023-04-25T15:19:25;99743.00;;;18.52;34.19
75298;BME280;63896;45.990;18.688;2023-04-25T15:22:29;99750.84;;;18.44;35.22
75298;BME280;63896;45.990;18.688;2023-04-25T15:25:32;99740.41;;;18.37;35.43
75298;BME280;63896;45.990;18.688;2023-04-25T15:28:35;99742.66;;;18.25;35.82
75298;BME280;63896;45.990;18.688;2023-04-25T15:31:38;99742.56;;;18.35;35.29
75298;BME280;63896;45.990;18.688;2023-04-25T15:34:41;99740.97;;;18.34;34.87
75298;BME280;63896;45.990;18.688;2023-04-25T15:37:44;99745.25;;;18.35;35.16
75298;BME280;63896;45.990;18.688;2023-04-25T15:40:47;99738.19;;;18.11;35.88
75298;BME280;63896;45.990;18.688;2023-04-25T15:43:52;99742.31;;;17.98;36.98
75298;BME280;63896;45.990;18.688;2023-04-25T15:46:56;99735.81;;;18.04;36.72
75298;BME280;63896;45.990;18.688;2023-04-25T15:49:59;99739.41;;;17.84;35.91
75298;BME280;63896;45.990;18.688;2023-04-25T15:53:02;99744.03;;;17.79;37.28
75298;BME280;63896;45.990;18.688;2023-04-25T15:56:08;99743.03;;;17.54;36.54
75298;BME280;63896;45.990;18.688;2023-04-25T15:59:11;99743.59;;;17.51;37.42
75298;BME280;63896;45.990;18.688;2023-04-25T16:02:14;99750.03;;;17.50;37.63
75298;BME280;63896;45.990;18.688;2023-04-25T16:05:17;99740.69;;;17.43;38.43
75298;BME280;63896;45.990;18.688;2023-04-25T16:08:21;99747.91;;;17.47;38.16
75298;BME280;63896;45.990;18.688;2023-04-25T16:11:27;99743.97;;;17.30;38.78
75298;BME280;63896;45.990;18.688;2023-04-25T16:14:32;99742.84;;;17.41;39.09
75298;BME280;63896;45.990;18.688;2023-04-25T16:17:35;99741.25;;;17.40;39.79
75298;BME280;63896;45.990;18.688;2023-04-25T16:20:38;99750.09;;;17.35;39.17
75298;BME280;63896;45.990;18.688;2023-04-25T16:23:41;99740.91;;;17.51;39.40
75298;BME280;63896;45.990;18.688;2023-04-25T16:26:44;99739.81;;;17.68;39.66
75298;BME280;63896;45.990;18.688;2023-04-25T16:29:47;99733.84;;;17.76;39.70
75298;BME280;63896;45.990;18.688;2023-04-25T16:32:52;99738.00;;;17.38;40.14
75298;BME280;63896;45.990;18.688;2023-04-25T16:35:57;99741.28;;;17.25;40.47